EDT,Max TemperatureF,Mean TemperatureF,Min TemperatureF,Max Dew PointF,MeanDew PointF,Min DewpointF,Max Humidity, Mean Humidity, Min Humidity, Max Sea Level PressureIn, Mean Sea Level PressureIn, Min Sea Level PressureIn, Max VisibilityMiles, Mean VisibilityMiles, Min VisibilityMiles, Max Wind SpeedMPH, Mean Wind SpeedMPH, Max Gust SpeedMPH,PrecipitationIn, CloudCover, Events, WindDirDegrees
2013-3-1,32,30,27,23,20,18,72,68,66,30.12,30.05,29.97,10,10,10,15,12,,0.00,8,,355
2013-3-2,28,27,26,19,18,16,75,70,63,30.09,30.07,30.05,10,7,2,12,9,,0.00,8,Snow,328
2013-3-3,30,24,19,16,14,11,75,62,50,30.07,30.04,30.00,10,10,8,15,9,22,0.01,4,,305
2013-3-4,36,26,17,19,14,9,74,62,41,30.16,30.12,30.08,10,10,10,8,4,,0.00,0,,304
2013-3-5,37,29,21,24,21,16,82,69,59,30.14,29.97,29.83,10,10,8,20,10,26,0.00,3,,67
2013-3-6,43,36,28,29,26,21,78,67,55,30.22,30.06,29.84,10,10,10,16,11,22,0.00,5,,351
2013-3-7,39,34,27,29,25,18,76,66,56,30.40,30.31,30.20,10,9,5,14,7,,0.00,7,,326
2013-3-8,46,35,24,26,22,16,79,62,42,30.51,30.45,30.41,10,10,10,7,4,,0.00,0,,288
2013-3-9,45,34,24,30,27,20,85,69,56,30.41,30.27,30.06,10,10,6,14,4,,0.00,2,Rain,131
2013-3-10,66,50,34,44,37,29,82,56,39,30.04,29.92,29.80,10,10,8,18,7,25,0.00,3,Rain,179
2013-3-11,57,48,39,48,44,31,83,73,57,29.80,29.64,29.48,10,8,2,24,15,32,0.27,8,Rain,188
2013-3-12,41,36,30,31,28,23,82,70,59,29.94,29.83,29.71,10,9,4,20,14,25,0.00,8,Snow,235
2013-3-13,35,32,28,27,21,12,86,69,46,30.20,29.98,29.85,10,6,0,24,14,31,0.00,7,Snow,278
2013-3-14,44,33,23,20,16,11,69,51,32,30.27,30.20,30.10,10,10,10,15,9,22,0.00,0,,281
2013-3-15,43,36,30,34,29,20,87,72,52,30.08,29.92,29.85,10,6,2,13,8,,0.08,7,Rain,300
2013-3-16,37,32,28,34,26,18,87,79,60,30.05,29.83,29.75,10,4,1,16,10,21,0.09,8,Rain-Snow,39
2013-3-17,36,29,23,22,16,11,69,59,46,30.27,30.19,30.05,10,10,10,20,10,23,0.02,3,,16
2013-3-18,37,30,24,34,28,16,89,79,64,30.18,29.75,29.56,10,5,1,21,12,29,0.08,7,Snow,103
2013-3-19,37,31,25,30,17,13,81,60,49,29.95,29.79,29.62,10,8,2,29,19,37,0.01,7,,252
2013-3-20,33,27,19,16,13,7,64,55,40,29.96,29.93,29.90,10,8,2,21,13,26,0.00,7,,275
2013-3-21,35,26,17,21,17,9,77,65,50,29.95,29.90,29.86,10,9,4,18,12,25,0.00,7,Snow,280
2013-3-22,43,35,28,21,18,15,69,55,38,30.03,29.98,29.93,10,10,9,17,12,22,0.00,5,Snow,304
2013-3-23,42,32,23,23,21,18,81,63,45,30.11,30.07,30.03,10,10,6,9,5,,0.00,3,,338
2013-3-24,41,32,24,25,21,18,79,64,45,30.04,29.86,29.63,10,10,8,22,8,30,0.00,4,,48
2013-3-25,43,37,32,28,25,21,80,64,49,29.91,29.66,29.56,10,8,1,21,17,26,0.00,8,Snow,21
2013-3-26,48,42,35,30,27,25,70,60,44,30.12,30.02,29.91,10,10,10,16,11,23,0.00,8,,309
2013-3-27,51,40,32,29,24,22,73,53,35,30.20,30.15,30.12,10,10,10,22,13,25,0.00,4,,295
2013-3-28,55,43,32,25,23,21,70,47,29,30.26,30.23,30.21,10,10,10,16,11,26,0.00,7,,303
2013-3-29,55,42,30,24,20,17,64,43,23,30.29,30.25,30.20,10,10,10,10,7,,0.00,0,,308
2013-3-30,59,44,28,29,22,15,69,45,18,30.22,30.12,29.94,10,10,10,15,4,18,0.00,0,,214
2013-3-31,63,48,35,43,34,27,82,64,29,29.92,29.72,29.62,10,6,2,22,6,26,0.03,6,Rain,236